Time;durP1;ratioP1;P1;durP2;ratioP2;P2;SDS_P1;SDS_P2;PMS_P1;PMS_P2;Temp;Humidity;BMP_temperature;BMP_pressure;BME280_temperature;BME280_humidity;BME280_pressure;Samples;Min_cycle;Max_cycle;Signal;HPM_P1;HPM_P2
2022/07/20 00:01:32;;;;;;;11.80;6.40;;;;;;;21.67;51.56;99459.92;234243;1199;138956;-57
2022/07/20 00:06:35;;;;;;;13.30;5.90;;;;;;;21.61;51.76;99456.19;234189;1199;139247;-60
2022/07/20 00:11:38;;;;;;;10.70;6.30;;;;;;;21.55;51.85;99453.21;234280;1199;138952;-59
2022/07/20 00:16:41;;;;;;;13.90;5.80;;;;;;;21.49;52.04;99449.27;234397;1199;139611;-59
2022/07/20 00:21:44;;;;;;;9.90;5.50;;;;;;;21.44;52.19;99450.14;234236;1199;139022;-61
2022/07/20 00:26:47;;;;;;;11.40;5.60;;;;;;;21.38;52.26;99443.88;234271;1199;139224;-55
2022/07/20 00:31:50;;;;;;;17.40;5.40;;;;;;;21.31;52.37;99442.25;234177;1199;139591;-57
2022/07/20 00:36:53;;;;;;;10.30;5.50;;;;;;;21.23;52.55;99439.58;234283;1199;138909;-57
2022/07/20 00:41:56;;;;;;;10.90;5.70;;;;;;;21.17;52.68;99436.59;234273;1199;139322;-56
2022/07/20 00:47:02;;;;;;;13.40;5.60;;;;;;;21.13;52.85;99441.12;234424;1199;139146;-57
2022/07/20 00:52:05;;;;;;;10.80;5.50;;;;;;;21.12;52.88;99445.48;234242;1199;140165;-57
2022/07/20 00:57:08;;;;;;;11.30;5.60;;;;;;;21.14;53.02;99446.04;234244;1199;139457;-57
2022/07/20 01:02:12;;;;;;;11.00;5.60;;;;;;;21.14;52.97;99444.05;234343;1199;139556;-58
2022/07/20 01:07:15;;;;;;;13.40;6.50;;;;;;;21.10;52.99;99447.52;234372;1198;139158;-58
2022/07/20 01:12:18;;;;;;;11.10;5.40;;;;;;;21.05;53.01;99452.20;234230;1199;139319;-59
2022/07/20 01:17:21;;;;;;;12.10;5.10;;;;;;;20.99;53.15;99447.94;234451;1198;139809;-58
2022/07/20 01:22:24;;;;;;;8.00;4.80;;;;;;;20.91;53.18;99444.56;234274;1199;139690;-57
2022/07/20 01:27:27;;;;;;;9.70;4.80;;;;;;;20.84;53.33;99440.21;234240;1199;139671;-60
2022/07/20 01:32:30;;;;;;;11.00;5.10;;;;;;;20.76;53.43;99443.06;234234;1199;139743;-60
2022/07/20 01:37:33;;;;;;;11.60;5.10;;;;;;;20.70;53.54;99441.37;234296;1199;139890;-60
2022/07/20 01:42:35;;;;;;;9.80;5.30;;;;;;;20.64;53.65;99444.50;234209;1199;139407;-60
2022/07/20 01:47:38;;;;;;;10.30;4.70;;;;;;;20.57;53.77;99449.55;234250;1199;139617;-58
2022/07/20 01:52:41;;;;;;;11.70;5.00;;;;;;;20.51;53.91;99450.42;234064;1199;139799;-58
2022/07/20 01:57:44;;;;;;;9.80;5.00;;;;;;;20.46;54.10;99453.25;234214;1199;139883;-57
2022/07/20 02:02:48;;;;;;;8.20;4.50;;;;;;;20.40;54.16;99453.79;234205;1199;141115;-58
2022/07/20 02:07:51;;;;;;;9.20;4.60;;;;;;;20.35;54.29;99451.39;234211;1199;139182;-60
2022/07/20 02:12:54;;;;;;;10.80;5.40;;;;;;;20.35;54.33;99450.95;234286;1199;139918;-60
2022/07/20 02:17:58;;;;;;;9.50;4.90;;;;;;;20.39;54.55;99449.48;234267;1199;140009;-60
2022/07/20 02:23:02;;;;;;;10.10;5.20;;;;;;;20.39;54.53;99452.14;234360;1199;139148;-58
2022/07/20 02:28:07;;;;;;;10.10;4.90;;;;;;;20.44;54.50;99452.36;234186;1199;139142;-60
2022/07/20 02:33:10;;;;;;;8.60;4.30;;;;;;;20.55;54.32;99451.85;234065;1199;139537;-56
2022/07/20 02:38:13;;;;;;;7.90;4.20;;;;;;;20.62;54.12;99446.64;234184;1199;138790;-57
2022/07/20 02:43:16;;;;;;;8.90;4.80;;;;;;;20.58;54.02;99443.86;234166;1199;138919;-59
2022/07/20 02:48:19;;;;;;;6.70;4.50;;;;;;;20.58;53.76;99441.45;234288;1199;139643;-57
2022/07/20 02:53:21;;;;;;;12.50;4.30;;;;;;;20.66;53.71;99442.48;234314;1199;139218;-60
2022/07/20 02:58:24;;;;;;;9.80;4.50;;;;;;;20.63;53.69;99444.93;234225;1199;139589;-59
2022/07/20 03:03:27;;;;;;;12.30;5.10;;;;;;;20.53;53.63;99449.93;234171;1199;142966;-58
2022/07/20 03:08:30;;;;;;;10.00;5.00;;;;;;;20.40;53.72;99454.19;234329;1199;141034;-59
2022/07/20 03:13:33;;;;;;;10.90;5.00;;;;;;;20.30;53.80;99450.87;234153;1199;139003;-59
2022/07/20 03:18:36;;;;;;;14.70;4.20;;;;;;;20.20;53.89;99453.25;234205;1199;139346;-58
2022/07/20 03:23:39;;;;;;;7.90;4.50;;;;;;;20.10;54.06;99460.30;234258;1199;139672;-58
2022/07/20 03:28:42;;;;;;;11.60;4.70;;;;;;;20.02;54.29;99460.66;234402;1198;139584;-58
2022/07/20 03:33:45;;;;;;;12.80;4.50;;;;;;;19.97;54.45;99464.00;234245;1199;139811;-58
2022/07/20 03:38:48;;;;;;;12.80;4.90;;;;;;;19.94;54.57;99461.96;234200;1199;139367;-56
2022/07/20 03:43:51;;;;;;;13.50;5.10;;;;;;;19.96;54.78;99465.79;234185;1199;139493;-58
2022/07/20 03:48:54;;;;;;;12.10;5.40;;;;;;;20.02;54.92;99466.32;234279;1199;139827;-58
2022/07/20 03:53:57;;;;;;;6.20;3.50;;;;;;;20.14;54.87;99468.41;234161;1199;141121;-58
2022/07/20 03:59:00;;;;;;;7.90;3.80;;;;;;;20.40;54.52;99477.27;234086;1199;139132;-56
2022/07/20 04:04:04;;;;;;;9.70;4.30;;;;;;;20.64;54.39;99477.52;234229;1199;141233;-56
2022/07/20 04:09:06;;;;;;;6.90;4.30;;;;;;;20.69;54.13;99479.16;234196;1198;140470;-57
2022/07/20 04:14:09;;;;;;;6.90;3.70;;;;;;;20.81;53.76;99485.77;234207;1199;139415;-57
2022/07/20 04:19:12;;;;;;;11.60;4.30;;;;;;;20.93;53.32;99486.05;234098;1199;139159;-57
2022/07/20 04:24:15;;;;;;;12.50;4.20;;;;;;;21.03;53.11;99488.45;234168;1199;139203;-56
2022/07/20 04:29:18;;;;;;;9.30;4.10;;;;;;;21.13;52.82;99484.63;234219;1199;139686;-57
2022/07/20 04:34:22;;;;;;;9.70;4.20;;;;;;;21.19;52.53;99488.50;234280;1199;139179;-58
2022/07/20 04:39:24;;;;;;;13.20;4.60;;;;;;;21.26;52.46;99495.80;234167;1199;139987;-57
2022/07/20 04:44:27;;;;;;;11.00;4.50;;;;;;;21.35;52.39;99503.34;234097;1199;141578;-55
2022/07/20 04:49:30;;;;;;;10.60;4.80;;;;;;;21.45;52.25;99497.70;234202;1199;139365;-57
2022/07/20 04:54:33;;;;;;;11.90;4.40;;;;;;;21.53;52.07;99496.00;234183;1199;139308;-56
2022/07/20 04:59:37;;;;;;;9.50;4.30;;;;;;;21.60;52.03;99499.75;234138;1199;138840;-57
2022/07/20 05:04:40;;;;;;;14.90;5.10;;;;;;;21.71;52.03;99504.16;234263;1199;139846;-57
2022/07/20 05:09:43;;;;;;;8.90;5.10;;;;;;;21.81;52.11;99506.73;234290;1199;139385;-57
2022/07/20 05:14:46;;;;;;;14.30;5.10;;;;;;;21.94;52.03;99505.41;234136;1199;139421;-55
2022/07/20 05:19:49;;;;;;;15.10;5.30;;;;;;;22.06;51.82;99507.80;234212;1199;139736;-60
2022/07/20 05:24:52;;;;;;;12.80;4.90;;;;;;;22.17;51.72;99505.02;234110;1199;140242;-58
2022/07/20 05:29:55;;;;;;;165.10;131.30;;;;;;;22.28;51.69;99507.01;234127;1199;139998;-60
2022/07/20 05:34:58;;;;;;;21.00;10.80;;;;;;;22.40;51.59;99509.35;234257;1199;140176;-59
2022/07/20 05:40:01;;;;;;;89.60;69.80;;;;;;;22.48;51.50;99508.48;234274;1198;140925;-59
2022/07/20 05:45:05;;;;;;;18.30;10.10;;;;;;;22.64;51.48;99508.68;233630;1199;139887;-58
2022/07/20 05:50:08;;;;;;;13.40;5.50;;;;;;;22.79;51.30;99506.56;234303;1199;142000;-57
2022/07/20 05:55:11;;;;;;;126.00;104.90;;;;;;;22.93;51.25;99511.36;234258;1198;139165;-58
2022/07/20 06:00:14;;;;;;;19.60;10.60;;;;;;;23.12;51.14;99513.55;234275;1199;139937;-59
2022/07/20 06:05:17;;;;;;;11.50;5.30;;;;;;;23.26;50.94;99517.81;234402;1199;139529;-59
2022/07/20 06:10:21;;;;;;;12.60;4.50;;;;;;;23.42;50.67;99527.33;234215;1198;138785;-61
2022/07/20 06:15:25;;;;;;;13.70;5.60;;;;;;;23.55;50.24;99529.75;234249;1199;139924;-62
2022/07/20 06:20:28;;;;;;;8.80;5.20;;;;;;;23.65;49.99;99530.52;234273;1199;139120;-61
2022/07/20 06:25:31;;;;;;;14.10;4.60;;;;;;;23.74;49.89;99535.12;234270;1198;139041;-60
2022/07/20 06:30:34;;;;;;;9.10;4.60;;;;;;;23.85;49.79;99533.57;234240;1199;139107;-56
2022/07/20 06:35:37;;;;;;;11.00;5.00;;;;;;;23.99;49.58;99536.23;234290;1199;138943;-56
2022/07/20 06:40:40;;;;;;;20.40;12.80;;;;;;;24.13;49.51;99535.94;234430;1199;138851;-58
2022/07/20 06:45:43;;;;;;;10.30;5.10;;;;;;;24.27;49.34;99531.41;234269;1199;139225;-56
2022/07/20 06:50:46;;;;;;;11.50;5.70;;;;;;;24.42;49.06;99531.98;234286;1199;139139;-57
2022/07/20 06:55:49;;;;;;;11.70;4.80;;;;;;;24.55;49.03;99530.48;234269;1199;139479;-56
2022/07/20 07:00:52;;;;;;;9.80;4.50;;;;;;;24.68;48.88;99530.63;234223;1199;139123;-56
2022/07/20 07:05:55;;;;;;;13.50;4.80;;;;;;;24.81;48.82;99531.95;234220;1199;140033;-55
2022/07/20 07:10:58;;;;;;;9.80;4.20;;;;;;;24.93;48.46;99526.41;234217;1199;139327;-55
2022/07/20 07:16:01;;;;;;;11.20;4.50;;;;;;;25.05;48.25;99528.05;233863;1199;140663;-54
2022/07/20 07:21:04;;;;;;;10.00;4.50;;;;;;;25.19;48.44;99524.31;234269;1199;139109;-54
2022/07/20 07:26:08;;;;;;;13.40;5.10;;;;;;;25.33;48.20;99522.58;233832;1199;140007;-54
2022/07/20 07:31:11;;;;;;;17.90;5.20;;;;;;;25.47;47.91;99521.83;234177;1198;139452;-57
2022/07/20 07:36:14;;;;;;;11.60;4.40;;;;;;;25.59;47.64;99522.98;234090;1199;141024;-57
2022/07/20 07:41:17;;;;;;;9.70;4.30;;;;;;;25.70;47.47;99519.60;234251;1199;139758;-55
2022/07/20 07:46:20;;;;;;;9.40;4.50;;;;;;;25.83;47.30;99519.09;234077;1199;139493;-56
2022/07/20 07:51:23;;;;;;;12.50;4.80;;;;;;;25.94;47.00;99524.67;234336;1199;138924;-54
2022/07/20 07:56:26;;;;;;;10.10;4.00;;;;;;;26.06;46.65;99527.95;234015;1199;140554;-57
2022/07/20 08:01:29;;;;;;;10.70;4.40;;;;;;;26.18;46.23;99528.58;234143;1199;139077;-57
2022/07/20 08:06:33;;;;;;;8.00;4.10;;;;;;;26.30;46.38;99523.98;234199;1199;139010;-57
2022/07/20 08:11:36;;;;;;;8.90;4.00;;;;;;;26.43;46.18;99523.33;234061;1199;139502;-56
2022/07/20 08:16:39;;;;;;;8.50;3.60;;;;;;;26.56;45.95;99526.09;234207;1199;139336;-55
2022/07/20 08:21:42;;;;;;;8.80;3.90;;;;;;;26.69;45.52;99520.20;234156;1199;138945;-55
2022/07/20 08:26:45;;;;;;;6.80;3.90;;;;;;;26.81;45.15;99515.99;234219;1198;139264;-55
2022/07/20 08:31:48;;;;;;;9.50;3.90;;;;;;;26.92;44.63;99515.23;234191;1199;139005;-58
2022/07/20 08:36:51;;;;;;;7.00;3.50;;;;;;;27.02;44.62;99515.20;234283;1199;138901;-54
2022/07/20 08:41:54;;;;;;;11.00;3.90;;;;;;;27.10;44.47;99510.21;234150;1199;138654;-56
2022/07/20 08:46:57;;;;;;;7.50;3.50;;;;;;;27.19;44.12;99508.63;234289;1198;139262;-56
2022/07/20 08:52:00;;;;;;;10.50;4.10;;;;;;;27.25;43.77;99508.29;234240;1199;139103;-57
2022/07/20 08:57:10;;;;;;;10.70;4.00;;;;;;;27.29;43.36;99511.36;234246;1199;139357;-54
2022/07/20 09:02:13;;;;;;;8.50;4.10;;;;;;;27.33;42.95;99510.66;234110;1199;138857;-56
2022/07/20 09:07:18;;;;;;;35.60;28.80;;;;;;;27.40;42.63;99514.19;234235;1199;139204;-57
2022/07/20 09:12:20;;;;;;;9.60;5.00;;;;;;;27.50;42.35;99513.60;234201;1198;139016;-56
2022/07/20 09:17:25;;;;;;;21.40;13.90;;;;;;;27.66;41.99;99506.74;234357;1199;139220;-57
2022/07/20 09:22:37;;;;;;;9.20;5.60;;;;;;;27.83;41.96;99504.55;234216;1199;139382;-55
2022/07/20 09:27:41;;;;;;;10.00;4.60;;;;;;;28.03;42.12;99505.00;234231;1199;139077;-55
2022/07/20 09:32:53;;;;;;;12.00;4.80;;;;;;;28.21;41.88;99506.59;234129;1199;139971;-55
2022/07/20 09:37:59;;;;;;;26.20;20.90;;;;;;;28.41;41.64;99499.73;234155;1199;139294;-57
2022/07/20 09:43:02;;;;;;;15.90;3.90;;;;;;;28.58;41.31;99493.98;234101;1199;139407;-56
2022/07/20 09:48:11;;;;;;;14.40;8.80;;;;;;;28.74;40.82;99493.05;234161;1199;139116;-58
2022/07/20 09:53:14;;;;;;;11.60;4.70;;;;;;;28.91;40.56;99491.20;234220;1199;139383;-58
2022/07/20 09:58:23;;;;;;;8.10;3.40;;;;;;;29.07;40.33;99487.91;234339;1198;139195;-57
2022/07/20 10:03:27;;;;;;;10.00;4.30;;;;;;;29.22;40.00;99489.45;234205;1199;139704;-57
2022/07/20 10:08:31;;;;;;;8.20;4.10;;;;;;;29.33;39.39;99484.47;234216;1199;139144;-57
2022/07/20 10:13:34;;;;;;;8.60;3.90;;;;;;;29.45;39.31;99479.53;234219;1199;139193;-57
2022/07/20 10:18:37;;;;;;;9.10;3.40;;;;;;;29.64;39.08;99471.15;234230;1198;139510;-58
2022/07/20 10:23:40;;;;;;;10.90;3.50;;;;;;;29.84;38.95;99468.79;234119;1199;138906;-57
2022/07/20 10:28:58;;;;;;;13.10;3.50;;;;;;;30.09;38.99;99467.03;234311;1199;139452;-57
2022/07/20 10:34:01;;;;;;;12.00;4.00;;;;;;;30.32;38.11;99465.30;233974;1199;139149;-57
2022/07/20 10:39:44;;;;;;;15.70;4.30;;;;;;;30.48;37.68;99460.73;234148;1199;139215;-58
2022/07/20 10:44:47;;;;;;;10.00;3.80;;;;;;;30.68;37.43;99457.44;234217;1199;139320;-55
2022/07/20 10:50:03;;;;;;;5.80;3.20;;;;;;;30.85;37.39;99459.66;234203;1199;139136;-57
2022/07/20 10:55:06;;;;;;;8.10;3.60;;;;;;;31.03;37.09;99455.90;234148;1199;139228;-56
2022/07/20 11:00:12;;;;;;;7.40;4.00;;;;;;;31.20;36.92;99454.98;234194;1199;138536;-57
2022/07/20 11:05:20;;;;;;;11.70;3.90;;;;;;;31.35;36.80;99454.77;234257;1199;139991;-58
2022/07/20 11:10:27;;;;;;;37.60;28.40;;;;;;;31.40;36.56;99448.48;234141;1199;139785;-58
2022/07/20 11:15:46;;;;;;;10.00;6.50;;;;;;;31.31;36.32;99445.67;233974;1199;139225;-58
2022/07/20 11:20:51;;;;;;;9.40;3.70;;;;;;;31.18;36.20;99443.79;234019;1199;139561;-57
2022/07/20 11:25:59;;;;;;;5.80;3.60;;;;;;;31.10;36.23;99440.81;234121;1199;139271;-58
2022/07/20 11:31:03;;;;;;;8.10;3.70;;;;;;;31.08;36.35;99442.27;234094;1199;139359;-58
2022/07/20 11:36:12;;;;;;;6.90;3.30;;;;;;;31.04;36.33;99438.98;234054;1199;139474;-55
2022/07/20 11:41:18;;;;;;;9.70;3.80;;;;;;;31.04;36.53;99437.45;234141;1199;140123;-57
2022/07/20 11:46:28;;;;;;;7.10;3.50;;;;;;;31.00;36.51;99436.67;234093;1198;139268;-55
2022/07/20 11:51:33;;;;;;;8.60;4.10;;;;;;;30.96;36.41;99433.48;233931;1199;139613;-56
2022/07/20 11:56:37;;;;;;;8.80;3.60;;;;;;;30.95;36.49;99428.37;234142;1199;139768;-53
2022/07/20 12:01:41;;;;;;;112.20;78.10;;;;;;;30.99;36.12;99425.02;234075;1199;139351;-53
2022/07/20 12:06:45;;;;;;;11.90;7.10;;;;;;;31.09;36.27;99421.52;234054;1199;140786;-55
2022/07/20 12:12:02;;;;;;;7.50;3.90;;;;;;;31.18;36.15;99419.92;234232;1198;139675;-56
2022/07/20 12:17:17;;;;;;;21.80;19.30;;;;;;;31.30;36.15;99417.23;234198;1199;139003;-57
2022/07/20 12:22:24;;;;;;;22.90;18.00;;;;;;;31.48;35.93;99414.70;233971;1199;139659;-57
2022/07/20 12:27:32;;;;;;;13.50;10.60;;;;;;;31.69;35.28;99410.36;234123;1199;139654;-55
2022/07/20 12:32:36;;;;;;;11.10;4.40;;;;;;;31.86;35.66;99405.53;234117;1199;139378;-60
2022/07/20 12:37:53;;;;;;;7.30;4.30;;;;;;;32.01;35.26;99398.19;233746;1199;139372;-56
2022/07/20 12:42:56;;;;;;;10.50;3.50;;;;;;;32.02;35.12;99396.94;234069;1199;142353;-55
2022/07/20 12:47:59;;;;;;;11.00;3.50;;;;;;;32.07;34.99;99394.83;234144;1199;140474;-56
2022/07/20 12:53:09;;;;;;;5.00;3.60;;;;;;;32.12;34.84;99394.23;234203;1199;139661;-57
2022/07/20 12:58:12;;;;;;;12.00;3.60;;;;;;;32.17;34.61;99393.37;234093;1199;139235;-55
2022/07/20 13:03:15;;;;;;;4.70;3.30;;;;;;;32.23;34.28;99395.64;234248;1199;139085;-57
2022/07/20 13:08:19;;;;;;;11.80;4.00;;;;;;;32.30;34.02;99392.78;234023;1199;138715;-56
2022/07/20 13:13:29;;;;;;;6.50;3.90;;;;;;;32.34;33.43;99390.20;233907;1199;140266;-54
2022/07/20 13:18:31;;;;;;;8.90;4.00;;;;;;;32.25;33.00;99388.00;234168;1199;139415;-54
2022/07/20 13:23:34;;;;;;;123.80;110.20;;;;;;;32.24;32.92;99386.27;234085;1199;139389;-58
2022/07/20 13:28:37;;;;;;;14.00;9.10;;;;;;;32.27;32.76;99383.86;234229;1199;139954;-56
2022/07/20 13:33:40;;;;;;;6.70;3.60;;;;;;;32.34;32.27;99382.09;234116;1199;139383;-59
2022/07/20 13:38:44;;;;;;;8.90;4.00;;;;;;;32.45;32.13;99384.88;234104;1198;139610;-57
2022/07/20 13:43:47;;;;;;;9.00;3.50;;;;;;;32.56;32.21;99380.70;234206;1199;140767;-56
2022/07/20 13:48:51;;;;;;;8.90;3.70;;;;;;;32.69;32.29;99381.42;234089;1199;139269;-56
2022/07/20 13:53:55;;;;;;;7.10;3.50;;;;;;;32.85;32.13;99373.89;234217;1199;139794;-56
2022/07/20 13:58:58;;;;;;;47.70;35.00;;;;;;;32.96;31.77;99364.98;233718;1199;139351;-57
2022/07/20 14:04:02;;;;;;;8.20;4.20;;;;;;;33.05;31.44;99360.80;234082;1199;139804;-57
2022/07/20 14:09:10;;;;;;;8.90;3.70;;;;;;;33.18;31.29;99353.86;234166;1199;139393;-58
2022/07/20 14:14:14;;;;;;;24.00;16.70;;;;;;;33.29;31.09;99350.84;234016;1199;138701;-58
2022/07/20 14:19:17;;;;;;;10.20;4.10;;;;;;;33.36;31.09;99347.22;234122;1199;139544;-58
2022/07/20 14:24:20;;;;;;;11.50;4.30;;;;;;;33.36;30.83;99343.75;234173;1199;139972;-59
2022/07/20 14:29:23;;;;;;;5.30;3.70;;;;;;;33.33;30.24;99344.39;234200;1199;138677;-59
2022/07/20 14:34:26;;;;;;;117.90;106.10;;;;;;;33.28;30.51;99337.89;234261;1199;140923;-59
2022/07/20 14:39:29;;;;;;;16.80;13.20;;;;;;;33.27;30.48;99329.41;233971;1199;140713;-59
2022/07/20 14:44:33;;;;;;;15.20;5.40;;;;;;;33.31;30.40;99329.14;234191;1199;139475;-59
2022/07/20 14:49:36;;;;;;;11.20;5.90;;;;;;;33.28;30.27;99325.29;234072;1199;139061;-59
2022/07/20 14:54:39;;;;;;;14.30;7.30;;;;;;;33.22;30.11;99316.45;234167;1198;141161;-59
2022/07/20 14:59:42;;;;;;;8.60;4.50;;;;;;;33.11;30.05;99314.16;234079;1199;140317;-59
2022/07/20 15:04:45;;;;;;;7.20;5.40;;;;;;;32.96;29.91;99313.09;234367;1199;139505;-59
2022/07/20 15:09:48;;;;;;;11.60;5.50;;;;;;;32.80;29.83;99314.96;234128;1199;139976;-61
2022/07/20 15:14:51;;;;;;;9.50;4.30;;;;;;;32.65;29.84;99309.02;234246;1199;139156;-59
2022/07/20 15:19:54;;;;;;;7.80;5.60;;;;;;;32.50;30.09;99300.59;234241;1198;138993;-60
2022/07/20 15:24:57;;;;;;;10.90;7.10;;;;;;;32.37;30.06;99303.55;234240;1199;139646;-59
2022/07/20 15:30:00;;;;;;;7.00;4.40;;;;;;;32.25;30.17;99299.01;234218;1199;139816;-59
2022/07/20 15:35:03;;;;;;;8.20;5.90;;;;;;;32.12;30.23;99296.52;234425;1199;139164;-59
2022/07/20 15:40:07;;;;;;;6.20;4.40;;;;;;;32.00;30.26;99297.02;234236;1199;139670;-58
2022/07/20 15:45:10;;;;;;;5.80;4.20;;;;;;;31.91;30.37;99299.23;234146;1199;138716;-59
2022/07/20 15:50:15;;;;;;;7.70;5.00;;;;;;;31.83;30.64;99296.15;234196;1199;139174;-58
2022/07/20 15:55:19;;;;;;;8.30;4.50;;;;;;;31.75;30.64;99292.92;234236;1199;138884;-59
2022/07/20 16:00:22;;;;;;;8.00;4.20;;;;;;;31.68;30.84;99294.79;234276;1199;138873;-59
2022/07/20 16:05:25;;;;;;;6.40;3.90;;;;;;;31.62;31.03;99292.04;234296;1199;138773;-59
2022/07/20 16:10:30;;;;;;;25.30;22.00;;;;;;;31.54;31.16;99292.70;234154;1198;139086;-59
2022/07/20 16:15:32;;;;;;;14.90;7.90;;;;;;;31.45;31.28;99290.84;234224;1199;140335;-58
2022/07/20 16:20:35;;;;;;;27.30;22.70;;;;;;;31.31;31.24;99296.21;234115;1199;140706;-59
2022/07/20 16:25:38;;;;;;;6.70;4.90;;;;;;;31.23;31.22;99293.05;234188;1199;139442;-57
2022/07/20 16:30:41;;;;;;;7.90;4.40;;;;;;;31.17;31.32;99294.48;234159;1199;139216;-57
2022/07/20 16:35:44;;;;;;;6.80;3.60;;;;;;;31.10;31.32;99294.41;234172;1199;139724;-59
2022/07/20 16:40:47;;;;;;;16.80;11.70;;;;;;;31.05;31.26;99296.39;234183;1199;143835;-58
2022/07/20 16:45:51;;;;;;;11.90;6.00;;;;;;;30.95;31.45;99298.06;234024;1199;139376;-56
2022/07/20 16:50:54;;;;;;;;;;;;;;;30.79;31.39;99294.93;233884;1199;139608;-54
2022/07/20 16:56:00;;;;;;;6.90;3.80;;;;;;;30.67;31.55;99301.11;234031;1199;125466;-56
2022/07/20 17:01:03;;;;;;;37.30;31.60;;;;;;;30.55;31.92;99304.09;234130;1198;139542;-56
2022/07/20 17:06:07;;;;;;;21.60;17.70;;;;;;;30.48;32.23;99305.16;234102;1199;140405;-56
2022/07/20 17:11:10;;;;;;;15.00;6.30;;;;;;;30.46;32.42;99302.50;234212;1199;140057;-58
2022/07/20 17:16:13;;;;;;;9.10;4.80;;;;;;;30.41;32.65;99298.98;234191;1199;139741;-56
2022/07/20 17:21:16;;;;;;;10.20;4.30;;;;;;;30.35;33.02;99302.05;234121;1199;138722;-57
2022/07/20 17:26:19;;;;;;;13.40;4.20;;;;;;;30.27;33.10;99294.68;234126;1199;139954;-58
2022/07/20 17:31:24;;;;;;;25.90;18.90;;;;;;;30.21;33.27;99297.71;234133;1199;139748;-57
2022/07/20 17:36:29;;;;;;;18.20;14.90;;;;;;;30.15;33.64;99294.41;234206;1199;139231;-57
2022/07/20 17:41:32;;;;;;;17.40;12.30;;;;;;;30.10;33.81;99292.55;234195;1199;139632;-55
2022/07/20 17:46:36;;;;;;;19.90;12.80;;;;;;;30.03;34.02;99284.83;234244;1199;139698;-56
2022/07/20 17:51:39;;;;;;;71.50;57.60;;;;;;;29.95;34.24;99281.23;234010;1199;140084;-57
2022/07/20 17:56:42;;;;;;;88.70;76.70;;;;;;;29.84;34.72;99280.36;234096;1199;140082;-58
2022/07/20 18:01:45;;;;;;;26.40;20.80;;;;;;;29.74;34.97;99280.21;234135;1199;139062;-56
2022/07/20 18:06:48;;;;;;;39.60;34.90;;;;;;;29.63;35.27;99279.17;234082;1199;139509;-56
2022/07/20 18:11:51;;;;;;;31.30;26.40;;;;;;;29.53;35.40;99280.37;234132;1199;139788;-58
2022/07/20 18:16:55;;;;;;;20.60;13.60;;;;;;;29.42;35.89;99276.84;234318;1199;139881;-58
2022/07/20 18:21:58;;;;;;;14.80;10.90;;;;;;;29.33;36.04;99280.80;234122;1199;139841;-57
2022/07/20 18:27:01;;;;;;;15.40;8.40;;;;;;;29.23;36.32;99282.05;234063;1199;139905;-58
2022/07/20 18:32:04;;;;;;;15.90;9.30;;;;;;;29.11;36.50;99284.54;234160;1199;139404;-58
2022/07/20 18:37:07;;;;;;;122.00;103.20;;;;;;;28.98;36.74;99285.26;234137;1199;139360;-57
2022/07/20 18:42:11;;;;;;;493.30;389.10;;;;;;;28.87;37.05;99280.80;234201;1199;141026;-58
2022/07/20 18:47:14;;;;;;;78.90;59.80;;;;;;;28.82;37.38;99282.77;234267;1199;139603;-56
2022/07/20 18:52:18;;;;;;;46.40;37.00;;;;;;;28.75;37.36;99285.62;234054;1199;140782;-58
2022/07/20 18:57:21;;;;;;;21.30;14.90;;;;;;;28.64;37.47;99286.34;234086;1199;140244;-59
2022/07/20 19:02:24;;;;;;;23.00;15.20;;;;;;;28.52;37.74;99292.36;234078;1199;139519;-58
2022/07/20 19:07:27;;;;;;;27.50;20.40;;;;;;;28.43;37.88;99302.34;234208;1198;140129;-58
2022/07/20 19:12:30;;;;;;;11.80;8.00;;;;;;;28.29;38.14;99301.72;234057;1199;140562;-58
2022/07/20 19:17:34;;;;;;;12.00;5.20;;;;;;;28.19;38.39;99304.73;234285;1199;139267;-58
2022/07/20 19:22:37;;;;;;;55.70;38.40;;;;;;;28.11;38.38;99311.84;234224;1199;139257;-59
2022/07/20 19:27:40;;;;;;;182.40;148.00;;;;;;;28.02;38.59;99313.93;234192;1199;138970;-59
2022/07/20 19:32:44;;;;;;;41.00;29.90;;;;;;;27.93;38.74;99317.63;234138;1198;140080;-58
2022/07/20 19:37:47;;;;;;;12.70;6.60;;;;;;;27.84;38.85;99319.52;234017;1198;139462;-58
2022/07/20 19:42:51;;;;;;;11.70;5.40;;;;;;;27.72;38.86;99323.43;234138;1199;139112;-58
2022/07/20 19:47:59;;;;;;;10.60;5.10;;;;;;;27.59;39.03;99320.77;234214;1199;140601;-58
2022/07/20 19:53:03;;;;;;;11.00;5.90;;;;;;;27.47;39.18;99321.38;234358;1199;139443;-56
2022/07/20 19:58:06;;;;;;;337.40;296.20;;;;;;;27.37;39.25;99320.70;234235;1199;139668;-57
2022/07/20 20:03:09;;;;;;;30.20;23.50;;;;;;;27.30;39.56;99320.27;234208;1199;140014;-58
2022/07/20 20:08:12;;;;;;;12.00;7.50;;;;;;;27.20;39.62;99318.23;234163;1199;140099;-58
2022/07/20 20:13:15;;;;;;;10.70;6.40;;;;;;;27.08;39.87;99318.27;234128;1200;139528;-58
2022/07/20 20:18:18;;;;;;;12.20;5.30;;;;;;;26.94;39.94;99315.00;234184;1199;139573;-59
2022/07/20 20:23:21;;;;;;;8.60;5.70;;;;;;;26.80;40.38;99317.27;234167;1199;139696;-58
2022/07/20 20:28:24;;;;;;;7.70;5.30;;;;;;;26.68;40.66;99315.38;234164;1199;138993;-58
2022/07/20 20:33:47;;;;;;;9.60;5.60;;;;;;;26.54;40.97;99322.31;234098;1199;140790;-58
2022/07/20 20:38:50;;;;;;;13.60;5.60;;;;;;;26.42;41.38;99322.20;234082;1199;140698;-59
2022/07/20 20:43:53;;;;;;;15.10;6.10;;;;;;;26.29;41.86;99322.92;234127;1199;138971;-59
2022/07/20 20:48:56;;;;;;;15.50;6.70;;;;;;;26.16;42.45;99323.38;234112;1199;139749;-59
2022/07/20 20:54:01;;;;;;;13.70;5.90;;;;;;;26.04;42.63;99324.17;234097;1198;139048;-58
2022/07/20 20:59:04;;;;;;;8.80;5.90;;;;;;;25.88;43.21;99324.48;234244;1199;139769;-58
2022/07/20 21:04:07;;;;;;;10.90;5.90;;;;;;;25.72;43.64;99325.16;234118;1199;139397;-58
2022/07/20 21:09:10;;;;;;;13.60;6.40;;;;;;;25.57;43.97;99325.98;234049;1199;139807;-59
2022/07/20 21:14:13;;;;;;;10.90;6.40;;;;;;;25.43;44.27;99326.00;234054;1199;140042;-59
2022/07/20 21:19:17;;;;;;;11.00;6.40;;;;;;;25.30;44.51;99327.31;234197;1199;139342;-57
2022/07/20 21:24:19;;;;;;;11.20;6.20;;;;;;;25.17;44.89;99330.06;234219;1198;139325;-58
2022/07/20 21:29:23;;;;;;;10.30;5.70;;;;;;;25.03;45.20;99328.05;234193;1199;138878;-59
2022/07/20 21:34:26;;;;;;;10.90;5.20;;;;;;;24.91;45.38;99330.56;234101;1199;139768;-59
2022/07/20 21:39:29;;;;;;;11.00;5.70;;;;;;;24.82;45.34;99333.93;234187;1199;139368;-58
2022/07/20 21:44:32;;;;;;;9.30;5.30;;;;;;;24.73;45.42;99331.58;234090;1199;138997;-58
2022/07/20 21:49:35;;;;;;;11.30;5.90;;;;;;;24.65;45.47;99334.82;234239;1199;139994;-58
2022/07/20 21:54:38;;;;;;;9.80;5.50;;;;;;;24.58;45.55;99336.09;234164;1199;139560;-58
2022/07/20 21:59:41;;;;;;;9.20;5.50;;;;;;;24.50;45.73;99336.02;234345;1199;138717;-56
2022/07/20 22:04:44;;;;;;;9.60;5.60;;;;;;;24.44;45.92;99334.59;234291;1199;138870;-59
2022/07/20 22:09:47;;;;;;;9.20;5.70;;;;;;;24.36;46.02;99333.88;233808;1199;139250;-58
2022/07/20 22:14:50;;;;;;;9.30;5.10;;;;;;;24.26;46.23;99343.64;234135;1199;139369;-59
2022/07/20 22:19:53;;;;;;;7.90;5.80;;;;;;;24.18;46.39;99339.14;234228;1199;138822;-58
2022/07/20 22:24:57;;;;;;;11.60;5.10;;;;;;;24.09;46.58;99339.77;234119;1198;139877;-58
2022/07/20 22:30:10;;;;;;;11.00;6.20;;;;;;;24.01;46.80;99342.35;233229;1199;139835;-55
2022/07/20 22:35:14;;;;;;;10.30;6.00;;;;;;;23.93;46.90;99340.92;234162;1199;139195;-58
2022/07/20 22:40:17;;;;;;;8.90;5.40;;;;;;;23.84;47.14;99341.00;234141;1199;139656;-56
2022/07/20 22:45:20;;;;;;;10.00;6.00;;;;;;;23.75;47.30;99336.63;234092;1199;139021;-57
2022/07/20 22:50:23;;;;;;;11.40;6.00;;;;;;;23.65;47.44;99340.06;233682;1199;139510;-57
2022/07/20 22:55:26;;;;;;;9.40;5.50;;;;;;;23.56;47.70;99343.26;234201;1199;139811;-58
2022/07/20 23:00:31;;;;;;;11.80;5.80;;;;;;;23.47;47.90;99342.64;234205;1199;139508;-58